Time;durP1;ratioP1;P1;durP2;ratioP2;P2;SDS_P1;SDS_P2;PMS_P1;PMS_P2;Temp;Humidity;BMP_temperature;BMP_pressure;BME280_temperature;BME280_humidity;BME280_pressure;Samples;Min_cycle;Max_cycle;Signal;HPM_P1;HPM_P2
2023/04/02 00:00:10;;;;;;;27.60;24.80;;;;;;;8.27;99.76;96768.33;109638;1289;22210;-88
2023/04/02 00:03:03;;;;;;;27.80;25.00;;;;;;;8.29;99.23;96771.83;109684;1289;22293;-90
2023/04/02 00:05:54;;;;;;;29.60;26.90;;;;;;;8.29;99.91;96774.89;109622;1289;22276;-91
2023/04/02 00:08:27;;;;;;;30.40;27.60;;;;;;;8.26;99.73;96775.39;109822;1289;22227;-88
2023/04/02 00:10:58;;;;;;;31.20;28.40;;;;;;;8.24;99.66;96774.48;109897;1289;22217;-91
2023/04/02 00:13:32;;;;;;;30.20;27.30;;;;;;;8.31;99.95;96776.95;109823;1289;22213;-92
2023/04/02 00:16:03;;;;;;;30.60;27.70;;;;;;;8.38;99.84;96779.32;109814;1289;22886;-91
2023/04/02 00:18:35;;;;;;;32.10;28.90;;;;;;;8.41;99.79;96775.68;109626;1289;158891;-91
2023/04/02 00:21:20;;;;;;;34.10;31.10;;;;;;;8.43;99.43;96781.19;109732;1289;22158;-91
2023/04/02 00:23:48;;;;;;;31.80;29.00;;;;;;;8.43;99.59;96780.86;109753;1289;22203;-92
2023/04/02 00:26:30;;;;;;;32.30;29.30;;;;;;;8.39;99.60;96781.70;109741;1289;22918;-92
2023/04/02 00:29:00;;;;;;;35.50;32.20;;;;;;;8.38;99.31;96784.69;109729;1289;22287;-92
2023/04/02 00:31:28;;;;;;;33.10;30.20;;;;;;;8.37;99.30;96780.41;109680;1289;22221;-90
2023/04/02 00:33:59;;;;;;;32.90;29.70;;;;;;;8.38;99.54;96784.09;109685;1289;23057;-92
2023/04/02 00:36:32;;;;;;;32.40;29.60;;;;;;;8.39;99.53;96781.11;109731;1289;22722;-95
2023/04/02 00:39:06;;;;;;;35.10;31.60;;;;;;;8.40;99.47;96782.44;109733;1289;22198;-92
2023/04/02 00:41:37;;;;;;;35.10;31.90;;;;;;;8.39;99.46;96786.64;109695;1289;22261;-93
2023/04/02 00:44:09;;;;;;;35.90;32.70;;;;;;;8.39;99.71;96784.86;109726;1289;22168;-91
2023/04/02 00:46:48;;;;;;;35.50;32.30;;;;;;;8.38;99.94;96787.20;109666;1289;22159;-91
2023/04/02 00:49:25;;;;;;;33.70;30.50;;;;;;;8.39;99.85;96784.88;109622;1289;22892;-93
2023/04/02 00:51:59;;;;;;;32.50;29.30;;;;;;;8.43;99.86;96789.02;109692;1289;22261;-92
2023/04/02 00:54:31;;;;;;;32.10;28.90;;;;;;;8.47;99.42;96790.30;109670;1289;22430;-90
2023/04/02 00:57:00;;;;;;;32.40;29.40;;;;;;;8.48;99.57;96790.92;109675;1289;22847;-90
2023/04/02 00:59:35;;;;;;;32.90;30.00;;;;;;;8.50;99.73;96787.20;109710;1289;22437;-92
2023/04/02 01:02:18;;;;;;;33.40;30.40;;;;;;;8.50;99.87;96791.56;109633;1289;22820;-91
2023/04/02 01:05:02;;;;;;;34.30;31.30;;;;;;;8.47;99.62;96794.49;109706;1289;22962;-92
2023/04/02 01:07:53;;;;;;;34.40;31.20;;;;;;;8.41;99.59;96795.29;109627;1289;22219;-91
2023/04/02 01:10:55;;;;;;;32.10;29.20;;;;;;;8.39;99.50;96803.02;109710;1289;22200;-92
2023/04/02 01:13:34;;;;;;;30.90;28.10;;;;;;;8.38;99.85;96806.95;109514;1292;22247;-92
2023/04/02 01:16:16;;;;;;;33.10;30.10;;;;;;;8.35;99.70;96808.41;109485;1292;22226;-91
2023/04/02 01:18:52;;;;;;;31.70;29.00;;;;;;;8.34;100.00;96810.27;109502;1292;22265;-90
2023/04/02 01:21:36;;;;;;;29.70;27.10;;;;;;;8.32;99.97;96809.54;109645;1292;22150;-90
2023/04/02 01:24:07;;;;;;;29.30;26.80;;;;;;;8.25;99.97;96812.35;109602;1292;22298;-90
2023/04/02 01:26:45;;;;;;;29.10;26.40;;;;;;;8.20;100.00;96816.98;109475;1286;22967;-91
2023/04/02 01:29:38;;;;;;;34.90;31.80;;;;;;;8.14;99.91;96816.51;109412;1292;22313;-90
2023/04/02 01:32:11;;;;;;;32.50;29.50;;;;;;;8.10;100.00;96814.81;109327;1292;22237;-89
2023/04/02 01:34:43;;;;;;;30.00;27.50;;;;;;;8.12;100.00;96814.89;109353;1292;22247;-91
2023/04/02 01:37:23;;;;;;;28.00;25.60;;;;;;;8.14;100.00;96811.08;109347;1292;22153;-90
2023/04/02 01:40:11;;;;;;;33.90;31.10;;;;;;;8.14;99.94;96806.19;109420;1292;22283;-91
2023/04/02 01:42:56;;;;;;;31.00;28.40;;;;;;;8.12;99.96;96803.08;109404;1292;22251;-93
2023/04/02 01:45:24;;;;;;;29.70;27.10;;;;;;;8.05;99.98;96805.19;109681;1289;22411;-91
2023/04/02 01:47:52;;;;;;;29.80;27.30;;;;;;;8.02;99.95;96808.71;109700;1289;22237;-90
2023/04/02 01:50:35;;;;;;;30.30;27.70;;;;;;;8.00;100.00;96810.23;109690;1289;22380;-92
2023/04/02 01:53:16;;;;;;;29.70;27.20;;;;;;;7.99;100.00;96812.61;109676;1289;22422;-93
2023/04/02 01:55:48;;;;;;;27.20;24.80;;;;;;;7.98;99.92;96814.29;109709;1283;22231;-91
2023/04/02 01:58:20;;;;;;;27.40;25.00;;;;;;;7.99;100.00;96818.67;109676;1289;22256;-93
2023/04/02 02:01:02;;;;;;;29.20;26.70;;;;;;;7.93;100.00;96819.17;109709;1289;23074;-93
2023/04/02 02:03:31;;;;;;;30.90;28.00;;;;;;;7.82;100.00;96823.82;109782;1289;22401;-91
2023/04/02 02:06:01;;;;;;;31.50;28.70;;;;;;;7.77;100.00;96827.08;109751;1289;22895;-93
2023/04/02 02:08:44;;;;;;;36.10;32.80;;;;;;;7.77;100.00;96825.66;109737;1289;22207;-92
2023/04/02 02:11:17;;;;;;;42.50;38.60;;;;;;;7.80;100.00;96828.80;109668;1289;22189;-91
2023/04/02 02:13:57;;;;;;;40.80;37.20;;;;;;;7.85;100.00;96828.48;109688;1289;22278;-91
2023/04/02 02:16:27;;;;;;;31.60;28.90;;;;;;;7.88;100.00;96827.89;109716;1289;22197;-91
2023/04/02 02:19:00;;;;;;;32.60;29.70;;;;;;;7.88;100.00;96828.21;109618;1289;23131;-91
2023/04/02 02:21:40;;;;;;;32.20;29.40;;;;;;;7.88;100.00;96831.81;109637;1289;22470;-89
2023/04/02 02:24:20;;;;;;;29.70;27.00;;;;;;;7.87;99.99;96835.17;109621;1289;22979;-90
2023/04/02 02:27:02;;;;;;;27.70;25.10;;;;;;;7.86;99.92;96832.15;109666;1289;22273;-91
2023/04/02 02:29:36;;;;;;;25.30;23.00;;;;;;;7.84;99.94;96836.27;109657;1289;22283;-90
2023/04/02 02:32:08;;;;;;;37.60;34.20;;;;;;;7.81;99.95;96839.98;109600;1289;22229;-90
2023/04/02 02:34:51;;;;;;;27.10;24.80;;;;;;;7.83;99.98;96841.27;109642;1289;22305;-90
2023/04/02 02:37:34;;;;;;;25.30;22.90;;;;;;;7.85;99.96;96843.16;109604;1289;22241;-91
2023/04/02 02:40:06;;;;;;;28.10;25.80;;;;;;;7.82;99.97;96844.99;109482;1289;22886;-90
2023/04/02 02:42:47;;;;;;;27.90;25.50;;;;;;;7.79;100.00;96841.98;109578;1289;22296;-90
2023/04/02 02:45:19;;;;;;;26.40;24.20;;;;;;;7.76;99.99;96844.39;109633;1289;23066;-89
2023/04/02 02:47:50;;;;;;;22.50;20.50;;;;;;;7.77;99.99;96846.32;109717;1289;22237;-92
2023/04/02 02:50:27;;;;;;;30.20;27.60;;;;;;;7.76;99.74;96846.81;109667;1289;22891;-91
2023/04/02 02:52:58;;;;;;;20.50;18.60;;;;;;;7.80;99.97;96849.94;109617;1289;22218;-91
2023/04/02 02:55:35;;;;;;;22.60;20.60;;;;;;;7.79;99.96;96852.20;109593;1289;22314;-91
2023/04/02 02:58:14;;;;;;;22.70;20.80;;;;;;;7.78;99.90;96847.37;109620;1289;22924;-90
2023/04/02 03:00:59;;;;;;;26.00;23.80;;;;;;;7.74;100.00;96845.88;109656;1289;22239;-94
2023/04/02 03:03:31;;;;;;;21.40;19.60;;;;;;;7.73;99.97;96847.67;109644;1289;22223;-90
2023/04/02 03:06:04;;;;;;;18.70;16.70;;;;;;;7.67;100.00;96846.15;109641;1289;22267;-90
2023/04/02 03:08:39;;;;;;;17.40;15.80;;;;;;;7.65;99.98;96853.45;109630;1289;22325;-90
2023/04/02 03:11:22;;;;;;;18.40;16.90;;;;;;;7.62;99.81;96857.08;109642;1289;22270;-89
2023/04/02 03:13:56;;;;;;;18.20;16.60;;;;;;;7.60;99.87;96853.90;109637;1282;22129;-91
2023/04/02 03:16:37;;;;;;;20.00;18.30;;;;;;;7.61;99.70;96856.18;109637;1289;22411;-91
2023/04/02 03:19:15;;;;;;;19.50;17.90;;;;;;;7.62;99.87;96860.23;109757;1274;22385;-92
2023/04/02 03:22:07;;;;;;;21.00;19.30;;;;;;;7.63;99.98;96863.33;109805;1258;22232;-89
2023/04/02 03:24:59;;;;;;;22.70;20.80;;;;;;;7.62;99.92;96868.24;109857;1288;22226;-91
2023/04/02 03:27:36;;;;;;;21.20;19.50;;;;;;;7.64;99.92;96871.11;109755;1288;23076;-93
2023/04/02 03:30:23;;;;;;;19.10;17.60;;;;;;;7.67;99.84;96871.59;109800;1288;22238;-91
2023/04/02 03:32:56;;;;;;;18.50;17.00;;;;;;;7.70;99.81;96873.55;109788;1288;22938;-91
2023/04/02 03:35:42;;;;;;;19.10;17.50;;;;;;;7.73;99.99;96883.24;109803;1288;22173;-90
2023/04/02 03:38:43;;;;;;;19.90;18.30;;;;;;;7.73;99.94;96879.33;109750;1288;22212;-92
2023/04/02 03:41:28;;;;;;;19.00;17.40;;;;;;;7.69;99.82;96881.88;109727;1288;22210;-91
2023/04/02 03:44:00;;;;;;;20.10;18.40;;;;;;;7.70;99.86;96881.91;109716;1288;22353;-91
2023/04/02 03:46:36;;;;;;;19.50;18.00;;;;;;;7.69;99.47;96882.41;109640;1288;22417;-90
2023/04/02 03:49:46;;;;;;;19.30;17.70;;;;;;;7.70;99.68;96885.51;109703;1288;22318;-92
2023/04/02 03:52:36;;;;;;;19.60;18.00;;;;;;;7.70;99.66;96886.59;109685;1288;22873;-93
2023/04/02 03:58:25;;;;;;;19.60;17.90;;;;;;;7.65;99.55;96891.41;109693;1289;22183;-90
2023/04/02 04:01:13;;;;;;;18.70;17.20;;;;;;;7.64;99.61;96897.87;109770;1290;22278;-90
2023/04/02 04:03:45;;;;;;;18.30;16.80;;;;;;;7.65;99.45;96901.73;109852;1289;22910;-93
2023/04/02 04:06:27;;;;;;;19.90;18.10;;;;;;;7.66;99.24;96904.70;109849;1289;22271;-90
2023/04/02 04:09:00;;;;;;;19.60;18.00;;;;;;;7.71;99.28;96908.08;109737;1289;22160;-92
2023/04/02 04:11:35;;;;;;;18.00;16.20;;;;;;;7.72;99.44;96914.31;109891;1289;22222;-95
2023/04/02 04:14:27;;;;;;;19.60;18.10;;;;;;;7.72;99.35;96914.89;109825;1289;22092;-91
2023/04/02 04:17:05;;;;;;;21.70;19.80;;;;;;;7.72;99.47;96918.17;109831;1289;22206;-94
2023/04/02 04:22:49;;;;;;;19.00;17.30;;;;;;;7.67;99.18;96923.97;109597;1289;22182;-91
2023/04/02 04:25:28;;;;;;;19.70;18.00;;;;;;;7.70;99.34;96923.80;109594;1289;22122;-92
2023/04/02 04:28:06;;;;;;;18.30;16.80;;;;;;;7.72;99.37;96927.23;109725;1289;22222;-92
2023/04/02 04:30:51;;;;;;;17.90;16.40;;;;;;;7.74;98.93;96928.96;109814;1289;22124;-92
2023/04/02 04:33:40;;;;;;;20.00;18.30;;;;;;;7.78;99.11;96930.55;109711;1290;22124;-94
2023/04/02 04:36:30;;;;;;;20.20;18.60;;;;;;;7.80;99.11;96932.80;109781;1289;22170;-93
2023/04/02 04:39:16;;;;;;;18.70;17.10;;;;;;;7.79;99.12;96936.21;109884;1265;22099;-88
2023/04/02 04:41:55;;;;;;;18.40;16.90;;;;;;;7.73;98.78;96937.19;109887;1261;22425;31
2023/04/02 04:44:32;;;;;;;17.50;15.90;;;;;;;7.68;98.66;96942.27;109758;1266;22197;-92
2023/04/02 04:47:07;;;;;;;17.20;15.60;;;;;;;7.62;98.70;96945.48;109791;1288;22388;-92
2023/04/02 04:50:02;;;;;;;22.50;20.60;;;;;;;7.57;98.82;96945.49;109849;1288;22194;-91
2023/04/02 05:02:18;;;;;;;20.50;18.80;;;;;;;7.43;98.79;96957.64;108758;1264;22208;-91
2023/04/02 05:04:52;;;;;;;20.20;18.40;;;;;;;7.46;98.93;96962.36;109845;1289;22219;-90
2023/04/02 05:10:48;;;;;;;21.90;20.10;;;;;;;7.57;98.89;96966.70;109808;1264;22777;31
2023/04/02 05:13:31;;;;;;;24.20;22.20;;;;;;;7.60;98.85;96965.64;109697;1267;22703;31
2023/04/02 05:16:28;;;;;;;24.60;22.30;;;;;;;7.62;98.83;96972.89;94924;1267;22412;-85
2023/04/02 05:19:28;;;;;;;26.00;23.90;;;;;;;7.60;98.68;96971.01;109642;1267;22353;31
2023/04/02 05:25:23;;;;;;;19.50;17.80;;;;;;;7.65;98.61;96973.20;109496;1283;22432;-90
2023/04/02 05:28:17;;;;;;;21.60;19.80;;;;;;;7.67;98.60;96974.66;109855;1270;22221;-88
2023/04/02 05:34:06;;;;;;;24.00;21.90;;;;;;;7.74;98.79;96977.45;108567;1264;22170;-92
2023/04/02 05:36:57;;;;;;;24.40;22.20;;;;;;;7.71;98.66;96982.34;109755;1266;22256;-85
2023/04/02 05:39:27;;;;;;;24.90;22.80;;;;;;;7.70;98.47;96983.67;109764;1261;22207;-89
2023/04/02 05:42:03;;;;;;;23.50;21.50;;;;;;;7.72;98.31;96983.29;109753;1265;22357;-91
2023/04/02 05:45:21;;;;;;;23.80;21.80;;;;;;;7.77;98.52;96985.16;109524;1290;22212;-87
2023/04/02 05:47:53;;;;;;;23.10;21.10;;;;;;;7.82;98.56;96987.63;109609;1290;22314;-86
2023/04/02 05:50:47;;;;;;;26.30;23.90;;;;;;;7.84;98.71;96987.46;109588;1290;22128;-89
2023/04/02 05:53:30;;;;;;;28.90;26.50;;;;;;;7.84;98.39;96988.70;109730;1261;22068;-88
2023/04/02 05:56:10;;;;;;;27.90;25.30;;;;;;;7.83;98.40;96991.90;109710;1290;22235;-91
2023/04/02 05:58:49;;;;;;;27.40;25.00;;;;;;;7.83;98.21;96993.92;109706;1290;22165;-86
2023/04/02 06:01:46;;;;;;;27.20;24.70;;;;;;;7.84;98.10;96993.89;109699;1290;22177;-87
2023/04/02 06:04:25;;;;;;;32.60;29.60;;;;;;;7.84;98.12;96997.78;109783;1266;22949;-88
2023/04/02 06:06:57;;;;;;;31.90;29.30;;;;;;;7.84;98.29;96997.27;109752;1289;21943;-84
2023/04/02 06:09:26;;;;;;;34.20;31.20;;;;;;;7.80;98.43;97000.05;109644;1289;22407;-88
2023/04/02 06:12:21;;;;;;;36.30;33.10;;;;;;;7.77;98.47;96998.42;109679;1289;23005;-89
2023/04/02 06:14:50;;;;;;;37.20;33.70;;;;;;;7.80;98.59;97000.48;109707;1289;22167;-90
2023/04/02 06:17:20;;;;;;;30.30;27.50;;;;;;;7.84;98.42;97002.48;109640;1289;23091;-91
2023/04/02 06:19:51;;;;;;;28.80;26.10;;;;;;;7.89;98.57;97004.67;109721;1289;22135;-91
2023/04/02 06:22:23;;;;;;;28.30;25.70;;;;;;;7.96;98.30;97009.08;109694;1289;22111;-91
2023/04/02 06:25:22;;;;;;;31.50;28.50;;;;;;;8.00;98.68;97010.13;109665;1289;22262;-91
2023/04/02 06:27:54;;;;;;;32.90;29.90;;;;;;;7.98;98.45;97016.55;109652;1289;22277;-91
2023/04/02 06:30:27;;;;;;;26.40;23.90;;;;;;;7.97;98.88;97018.02;109620;1289;22193;-89
2023/04/02 06:32:56;;;;;;;27.70;25.10;;;;;;;7.94;98.42;97025.85;109661;1289;23057;-90
2023/04/02 06:35:26;;;;;;;25.20;22.90;;;;;;;7.93;98.38;97028.56;109654;1289;22220;-90
2023/04/02 06:38:05;;;;;;;23.30;21.10;;;;;;;7.94;98.26;97035.30;109606;1289;22888;-90
2023/04/02 06:40:47;;;;;;;22.80;20.70;;;;;;;7.96;98.38;97037.20;109690;1289;22368;-88
2023/04/02 06:43:34;;;;;;;23.30;21.10;;;;;;;7.96;98.62;97046.86;109643;1289;22901;-90
2023/04/02 06:46:24;;;;;;;21.70;19.70;;;;;;;7.90;98.39;97053.52;109707;1289;22611;-88
2023/04/02 06:49:09;;;;;;;19.90;18.10;;;;;;;7.85;97.82;97057.08;109704;1289;23016;-89
2023/04/02 06:51:38;;;;;;;20.70;18.70;;;;;;;7.81;98.22;97060.44;109678;1289;22203;-86
2023/04/02 06:54:13;;;;;;;22.40;20.30;;;;;;;7.81;98.49;97060.85;109675;1289;22213;-87
2023/04/02 06:56:43;;;;;;;;;;;;;;;7.81;98.81;97062.30;109690;1289;22328;-88
2023/04/02 06:59:15;;;;;;;25.50;23.30;;;;;;;7.74;98.68;97066.59;109654;1289;22217;-84
2023/04/02 07:02:05;;;;;;;23.60;21.50;;;;;;;7.67;99.00;97068.77;109647;1289;22277;-87
2023/04/02 07:04:34;;;;;;;22.20;20.30;;;;;;;7.61;99.57;97075.38;109629;1289;22282;-87
2023/04/02 07:07:02;;;;;;;18.60;16.70;;;;;;;7.50;100.00;97083.59;109686;1289;22212;-91
2023/04/02 07:09:34;;;;;;;12.30;11.20;;;;;;;7.36;99.97;97084.19;109638;1289;22223;-85
2023/04/02 07:12:11;;;;;;;9.20;7.40;;;;;;;7.23;100.00;97092.25;109690;1289;22934;-88
2023/04/02 07:14:39;;;;;;;7.80;5.40;;;;;;;6.86;99.83;97107.23;109559;1289;22268;-88
2023/04/02 07:17:15;;;;;;;5.90;4.10;;;;;;;6.50;99.82;97109.10;109674;1289;22172;-86
2023/04/02 07:19:48;;;;;;;4.50;3.70;;;;;;;6.24;100.00;97115.54;109626;1289;22994;-88
2023/04/02 07:22:18;;;;;;;;;;;;;;;6.02;100.00;97121.09;109679;1274;22306;-89
2023/04/02 07:24:50;;;;;;;4.70;4.20;;;;;;;5.80;100.00;97128.23;109574;1289;22204;-89
2023/04/02 07:27:19;;;;;;;4.80;3.80;;;;;;;5.65;100.00;97135.91;109659;1289;23044;-90
2023/04/02 07:29:47;;;;;;;6.00;4.50;;;;;;;5.46;100.00;97136.21;109667;1289;23382;-87
2023/04/02 07:32:15;;;;;;;5.20;4.30;;;;;;;5.36;100.00;97145.91;109676;1289;22192;-87
2023/04/02 07:34:43;;;;;;;7.00;5.70;;;;;;;5.21;100.00;97150.48;109683;1289;23055;-89
2023/04/02 07:37:13;;;;;;;5.10;4.40;;;;;;;5.15;100.00;97156.72;109662;1289;22313;-91
2023/04/02 07:39:41;;;;;;;5.30;4.80;;;;;;;5.04;100.00;97162.77;109691;1289;22297;-92
2023/04/02 07:42:09;;;;;;;5.00;4.50;;;;;;;4.94;100.00;97168.92;109775;1289;22164;-88
2023/04/02 07:44:37;;;;;;;6.10;4.50;;;;;;;4.87;100.00;97172.77;109795;1289;22319;-88
2023/04/02 07:47:07;;;;;;;4.90;4.40;;;;;;;4.83;100.00;97176.55;109730;1289;22265;-90
2023/04/02 07:49:35;;;;;;;5.60;4.40;;;;;;;4.76;100.00;97184.77;109668;1289;22233;-89
2023/04/02 07:52:03;;;;;;;5.00;4.20;;;;;;;4.77;100.00;97188.38;109693;1289;22273;-90
2023/04/02 07:54:31;;;;;;;4.80;4.20;;;;;;;4.71;100.00;97192.11;109680;1289;22917;-88
2023/04/02 07:56:59;;;;;;;5.70;4.70;;;;;;;4.60;100.00;97197.58;109732;1289;23215;-88
2023/04/02 07:59:27;;;;;;;5.90;5.20;;;;;;;4.52;100.00;97200.83;109680;1289;22450;-89
2023/04/02 08:01:56;;;;;;;7.30;5.30;;;;;;;4.45;100.00;97206.27;109587;1289;22239;-89
2023/04/02 08:04:26;;;;;;;5.60;4.70;;;;;;;4.35;100.00;97215.12;109821;1289;22889;-85
2023/04/02 08:06:54;;;;;;;6.20;4.60;;;;;;;4.19;100.00;97218.23;109495;1264;22193;-90
2023/04/02 08:09:22;;;;;;;6.90;4.80;;;;;;;4.11;100.00;97223.34;109746;1264;21983;-91
2023/04/02 08:11:50;;;;;;;5.70;4.70;;;;;;;4.11;100.00;97225.15;109690;1264;22318;-87
2023/04/02 08:14:24;;;;;;;6.90;5.00;;;;;;;4.04;100.00;97227.09;109848;1263;22839;31
2023/04/02 08:16:54;;;;;;;5.30;4.60;;;;;;;3.98;100.00;97235.91;109677;1261;22326;-90
2023/04/02 08:19:23;;;;;;;8.40;6.20;;;;;;;3.89;100.00;97233.50;109781;1290;21930;-92
2023/04/02 08:21:59;;;;;;;8.20;7.40;;;;;;;3.83;100.00;97239.96;109858;1263;22789;31
2023/04/02 08:24:27;;;;;;;7.60;6.90;;;;;;;3.79;100.00;97241.67;109547;1263;22265;-91
2023/04/02 08:26:55;;;;;;;8.00;7.20;;;;;;;3.73;100.00;97246.92;109906;1288;22248;-86
2023/04/02 08:29:23;;;;;;;7.70;6.70;;;;;;;3.71;100.00;97255.45;109851;1289;22281;-91
2023/04/02 08:31:51;;;;;;;6.70;4.80;;;;;;;3.65;100.00;97259.98;109743;1289;22229;-91
2023/04/02 08:34:19;;;;;;;6.10;5.50;;;;;;;3.66;100.00;97260.52;109821;1289;22322;-91
2023/04/02 08:36:48;;;;;;;5.50;4.50;;;;;;;3.59;100.00;97267.20;109707;1288;22274;-88
2023/04/02 08:39:16;;;;;;;5.60;4.40;;;;;;;3.58;100.00;97270.77;109778;1289;22207;-91
2023/04/02 08:42:00;;;;;;;5.20;4.30;;;;;;;3.60;100.00;97274.06;109855;1289;22313;-89
2023/04/02 08:44:40;;;;;;;5.70;5.10;;;;;;;3.60;100.00;97281.36;109783;1289;22859;-92
2023/04/02 08:47:12;;;;;;;6.10;4.40;;;;;;;3.63;100.00;97287.64;109804;1285;22247;-93
2023/04/02 08:49:55;;;;;;;4.30;3.70;;;;;;;3.65;100.00;97293.50;109765;1289;22220;-90
2023/04/02 08:52:27;;;;;;;4.50;3.90;;;;;;;3.66;100.00;97295.90;109821;1289;22679;-91
2023/04/02 08:54:56;;;;;;;4.80;4.00;;;;;;;3.69;100.00;97300.59;109803;1289;22392;-88
2023/04/02 08:57:48;;;;;;;4.90;4.40;;;;;;;3.68;100.00;97304.27;109909;1289;22106;-90
2023/04/02 09:03:14;;;;;;;6.50;5.70;;;;;;;3.70;100.00;97312.15;109750;1289;22285;-92
2023/04/02 09:05:44;;;;;;;6.20;5.40;;;;;;;3.72;100.00;97314.33;109843;1264;22228;-87
2023/04/02 09:08:19;;;;;;;6.30;4.50;;;;;;;3.75;100.00;97318.70;109803;1289;22209;-87
2023/04/02 09:10:59;;;;;;;5.50;4.50;;;;;;;3.76;100.00;97320.14;109706;1288;22426;-87
2023/04/02 09:13:29;;;;;;;5.60;4.60;;;;;;;3.76;100.00;97327.12;109642;1289;22318;-91
2023/04/02 09:16:04;;;;;;;7.40;6.10;;;;;;;3.76;100.00;97328.66;109677;1289;22442;-89
2023/04/02 09:18:33;;;;;;;4.90;3.70;;;;;;;3.80;100.00;97332.71;109660;1289;22405;-89
2023/04/02 09:21:27;;;;;;;5.60;4.80;;;;;;;3.76;100.00;97340.48;109554;1289;22220;-90
2023/04/02 09:23:56;;;;;;;4.70;4.10;;;;;;;3.65;100.00;97344.17;109644;1289;22193;-89
2023/04/02 09:26:27;;;;;;;5.00;4.40;;;;;;;3.58;100.00;97350.36;109619;1289;22199;-89
2023/04/02 09:29:11;;;;;;;5.70;4.80;;;;;;;3.57;100.00;97358.14;109680;1288;22333;-91
2023/04/02 09:32:18;;;;;;;5.70;5.10;;;;;;;3.59;100.00;97360.63;109700;1289;22247;-89
2023/04/02 09:34:46;;;;;;;5.50;4.20;;;;;;;3.63;100.00;97369.17;109630;1289;22250;-94
2023/04/02 09:37:17;;;;;;;4.80;4.30;;;;;;;3.66;100.00;97370.92;109791;1289;22187;-90
2023/04/02 09:39:45;;;;;;;5.60;4.40;;;;;;;3.60;100.00;97373.17;109757;1289;22239;-86
2023/04/02 09:42:40;;;;;;;5.40;4.20;;;;;;;3.58;100.00;97380.25;109745;1289;22196;-88
2023/04/02 09:45:26;;;;;;;5.10;4.30;;;;;;;3.52;100.00;97384.56;109717;1289;22278;-93
2023/04/02 09:47:56;;;;;;;4.70;4.20;;;;;;;3.42;100.00;97392.48;109801;1289;22266;-91
2023/04/02 09:50:28;;;;;;;6.80;3.90;;;;;;;3.37;100.00;97397.27;109817;1289;22211;-89
2023/04/02 09:52:57;;;;;;;4.30;3.90;;;;;;;3.34;100.00;97405.47;109808;1289;22245;-86
2023/04/02 09:55:29;;;;;;;4.90;4.30;;;;;;;3.23;100.00;97413.70;109746;1289;22214;-85
2023/04/02 09:58:16;;;;;;;6.10;5.00;;;;;;;3.10;100.00;97411.76;109786;1289;22224;-88
2023/04/02 10:00:52;;;;;;;5.60;4.80;;;;;;;3.07;100.00;97412.02;109701;1289;22848;-88
2023/04/02 10:03:32;;;;;;;6.40;4.70;;;;;;;3.09;100.00;97418.56;109728;1289;22665;-83
2023/04/02 10:06:14;;;;;;;5.70;4.60;;;;;;;3.11;100.00;97421.34;109770;1289;22115;-85
2023/04/02 10:08:44;;;;;;;5.20;4.70;;;;;;;3.14;100.00;97425.72;109741;1289;22133;-92
2023/04/02 10:11:34;;;;;;;6.50;4.60;;;;;;;3.09;100.00;97427.25;109787;1289;22165;-90
2023/04/02 10:14:42;;;;;;;5.40;4.60;;;;;;;3.07;100.00;97435.38;109658;1289;22221;-86
2023/04/02 10:17:19;;;;;;;5.10;4.60;;;;;;;3.03;100.00;97435.48;109650;1289;22193;-88
2023/04/02 10:19:54;;;;;;;5.50;4.60;;;;;;;3.00;100.00;97439.36;109686;1289;22236;-87
2023/04/02 10:22:22;;;;;;;6.70;4.60;;;;;;;3.06;100.00;97444.00;109635;1289;22253;-86
2023/04/02 10:24:50;;;;;;;6.10;5.50;;;;;;;3.06;100.00;97445.19;109635;1289;22358;-86
2023/04/02 10:28:11;;;;;;;6.00;5.30;;;;;;;3.06;100.00;97451.04;109641;1289;22269;-88
2023/04/02 10:31:00;;;;;;;8.50;5.90;;;;;;;3.07;100.00;97460.93;109675;1289;22318;-90
2023/04/02 10:33:35;;;;;;;9.00;6.30;;;;;;;3.12;100.00;97460.10;109654;1289;22921;-88
2023/04/02 10:36:18;;;;;;;7.20;6.40;;;;;;;3.13;100.00;97464.84;109698;1289;22985;-90
2023/04/02 10:39:08;;;;;;;7.00;6.30;;;;;;;3.14;100.00;97468.25;109704;1289;22998;-91
2023/04/02 10:42:02;;;;;;;8.50;7.70;;;;;;;3.14;100.00;97469.22;109684;1289;22257;-88
2023/04/02 10:44:57;;;;;;;6.80;6.00;;;;;;;3.17;100.00;97471.84;109609;1289;22234;-88
2023/04/02 10:47:53;;;;;;;6.80;6.10;;;;;;;3.16;100.00;97478.00;109621;1289;22245;-90
2023/04/02 10:50:28;;;;;;;8.90;6.40;;;;;;;3.15;100.00;97480.34;109718;1289;22298;-89
2023/04/02 10:52:59;;;;;;;8.10;6.80;;;;;;;3.20;100.00;97485.00;109818;1289;22230;-89
2023/04/02 10:55:32;;;;;;;7.00;5.40;;;;;;;3.28;100.00;97483.42;109709;1274;22217;-89
2023/04/02 11:01:12;;;;;;;6.20;5.60;;;;;;;3.32;100.00;97493.34;109610;1289;22198;-84
2023/04/02 11:03:49;;;;;;;7.20;5.70;;;;;;;3.34;100.00;97496.48;109618;1289;22322;-87
2023/04/02 11:06:28;;;;;;;6.80;5.70;;;;;;;3.39;100.00;97494.64;109644;1289;22240;-91
2023/04/02 11:09:02;;;;;;;6.90;6.10;;;;;;;3.45;100.00;97497.85;109601;1289;22193;-89
2023/04/02 11:11:43;;;;;;;7.80;7.00;;;;;;;3.49;100.00;97502.83;109601;1289;22264;-91
2023/04/02 11:14:16;;;;;;;8.20;6.60;;;;;;;3.50;100.00;97508.58;109610;1289;23030;-89
2023/04/02 11:16:47;;;;;;;8.10;7.20;;;;;;;3.46;100.00;97513.90;109480;1290;22215;-91
2023/04/02 11:19:15;;;;;;;8.30;7.20;;;;;;;3.50;100.00;97519.39;109489;1289;23017;-90
2023/04/02 11:21:51;;;;;;;7.70;6.70;;;;;;;3.50;100.00;97520.77;109806;1289;22287;-91
2023/04/02 11:24:31;;;;;;;9.40;7.40;;;;;;;3.47;100.00;97524.55;109804;1289;22240;-86
2023/04/02 11:27:09;;;;;;;9.80;8.10;;;;;;;3.45;100.00;97527.48;109759;1289;22318;-90
2023/04/02 11:29:50;;;;;;;9.30;8.10;;;;;;;3.43;100.00;97529.50;109766;1289;22188;-93
2023/04/02 11:35:29;;;;;;;9.10;8.30;;;;;;;3.46;100.00;97531.74;109774;1264;22936;-91
2023/04/02 11:40:58;;;;;;;10.30;9.30;;;;;;;3.62;100.00;97533.98;109873;1289;22348;-90
2023/04/02 11:43:32;;;;;;;12.70;11.50;;;;;;;3.60;100.00;97545.00;109721;1289;22326;-90
2023/04/02 11:49:33;;;;;;;11.60;10.50;;;;;;;3.38;100.00;97552.05;109608;1291;22129;-91
2023/04/02 11:52:03;;;;;;;11.60;10.40;;;;;;;3.34;100.00;97553.96;109728;1291;22212;-91
2023/04/02 11:57:47;;;;;;;11.20;10.10;;;;;;;3.48;100.00;97562.55;108660;1259;22372;31
2023/04/02 12:00:29;;;;;;;10.50;8.80;;;;;;;3.49;100.00;97565.10;109500;1263;22202;-88
2023/04/02 12:03:07;;;;;;;11.30;9.20;;;;;;;3.50;100.00;97567.03;109809;1265;22218;-92
2023/04/02 12:05:57;;;;;;;10.70;8.70;;;;;;;3.50;100.00;97568.04;109766;1288;23035;-91
2023/04/02 12:09:02;;;;;;;10.20;8.60;;;;;;;3.49;100.00;97571.08;109684;1289;22230;-92
2023/04/02 12:11:32;;;;;;;8.10;7.30;;;;;;;3.55;100.00;97575.72;109675;1289;22173;-90
2023/04/02 12:14:22;;;;;;;8.10;6.40;;;;;;;3.55;100.00;97575.84;109694;1289;22229;-90
2023/04/02 12:16:50;;;;;;;7.00;6.30;;;;;;;3.54;100.00;97577.48;109564;1289;172551;-92
2023/04/02 12:19:19;;;;;;;6.70;5.90;;;;;;;3.54;100.00;97576.09;109657;1286;22296;-89
2023/04/02 12:21:47;;;;;;;7.90;6.80;;;;;;;3.56;100.00;97578.08;109705;1289;22205;-91
2023/04/02 12:24:22;;;;;;;8.60;7.70;;;;;;;3.65;100.00;97584.65;109613;1289;22219;-88
2023/04/02 12:27:15;;;;;;;7.40;6.70;;;;;;;3.62;100.00;97580.44;109687;1289;22452;-88
2023/04/02 12:29:43;;;;;;;10.60;9.30;;;;;;;3.63;100.00;97583.80;109627;1289;22217;-87
2023/04/02 12:32:27;;;;;;;12.00;10.80;;;;;;;3.53;100.00;97590.31;109674;1289;22113;-89
2023/04/02 12:34:58;;;;;;;12.40;11.20;;;;;;;3.44;100.00;97591.98;109676;1289;22208;-88
2023/04/02 12:37:27;;;;;;;12.10;10.90;;;;;;;3.42;100.00;97592.83;109671;1289;22259;-88
2023/04/02 12:39:57;;;;;;;11.40;10.20;;;;;;;3.43;100.00;97599.92;109653;1289;22386;-90
2023/04/02 12:42:33;;;;;;;11.60;10.40;;;;;;;3.47;100.00;97597.54;109679;1289;22222;-89
2023/04/02 12:45:03;;;;;;;15.70;14.00;;;;;;;3.50;100.00;97594.79;109686;1289;22227;-88
2023/04/02 12:47:31;;;;;;;12.50;11.30;;;;;;;3.52;100.00;97600.54;109635;1289;22304;-89
2023/04/02 12:50:00;;;;;;;14.20;12.80;;;;;;;3.54;100.00;97607.31;109685;1289;22207;-91